Observation data for Floydada on 01/11/2018      Previous  Date  Next       Current Mesonet Observations  Soil Data  Daily Summary Page  Observations in Plain Language
KFLS 110600Z 21018G23KT 09/00 A2955 RMK A01 T008900-0  RH  054%=      5-min Rain = 0
KFLS 110605Z 21018G24KT 09/M00 A2954 RMK A01 T00901001  RH  053%=      5-min Rain = 0
KFLS 110610Z 21019G26KT 09/M00 A2954 RMK A01 T00911002  RH  053%=      5-min Rain = 0
KFLS 110615Z 21019G25KT 09/M00 A2954 RMK A01 T00911004  RH  052%=      5-min Rain = 0
KFLS 110620Z 21019G26KT 09/M01 A2954 RMK A01 T00921005  RH  051%=      5-min Rain = 0
KFLS 110625Z 22018G26KT 09/M01 A2954 RMK A01 T00931006  RH  050%=      5-min Rain = 0
KFLS 110630Z 22020G30KT 10/M01 A2954 RMK A01 T00951006  RH  050%=      5-min Rain = 0
KFLS 110635Z 22020G28KT 09/M01 A2954 RMK A01 T00941007  RH  050%=      5-min Rain = 0
KFLS 110640Z 22020G29KT 09/M01 A2953 RMK A01 T00941007  RH  050%=      5-min Rain = 0
KFLS 110645Z 23019G26KT 09/M01 A2954 RMK A01 T00921007  RH  051%=      5-min Rain = 0
KFLS 110650Z 22020G26KT 09/M01 A2953 RMK A01 T00911006  RH  051%=      5-min Rain = 0
KFLS 110655Z 22021G27KT 09/M01 A2953 RMK A01 T00901006  RH  052%=      5-min Rain = 0
KFLS 110700Z 22020G27KT 09/M01 A2953 RMK A01 T00891006  RH  052%=      5-min Rain = 0
KFLS 110705Z 23019G25KT 09/M01 A2954 RMK A01 T00881005  RH  052%=      5-min Rain = 0
KFLS 110710Z 23019G27KT 09/M00 A2954 RMK A01 T00871004  RH  053%=      5-min Rain = 0
KFLS 110715Z 23021G27KT 09/M00 A2954 RMK A01 T00871004  RH  053%=      5-min Rain = 0
KFLS 110720Z 23022G31KT 09/M00 A2954 RMK A01 T00881004  RH  053%=      5-min Rain = 0
KFLS 110725Z 22022G29KT 09/M00 A2954 RMK A01 T00891004  RH  053%=      5-min Rain = 0
KFLS 110730Z 23022G29KT 09/M00 A2954 RMK A01 T00901004  RH  052%=      5-min Rain = 0
KFLS 110735Z 23021G29KT 09/M00 A2954 RMK A01 T00891004  RH  053%=      5-min Rain = 0
KFLS 110740Z 23022G30KT 09/M00 A2954 RMK A01 T00891004  RH  052%=      5-min Rain = 0
KFLS 110745Z 23023G31KT 09/M00 A2953 RMK A01 T00891004  RH  052%=      5-min Rain = 0
KFLS 110750Z 23023G30KT 09/M01 A2953 RMK A01 T00891005  RH  052%=      5-min Rain = 0
KFLS 110755Z 24023G31KT 09/M01 A2954 RMK A01 T00891005  RH  052%=      5-min Rain = 0
KFLS 110800Z 25021G29KT 09/M01 A2954 RMK A01 T00871005  RH  053%=      5-min Rain = 0
KFLS 110805Z 24024G33KT 09/M01 A2954 RMK A01 T00861005  RH  053%=      5-min Rain = 0
KFLS 110810Z 24022G30KT 09/M01 A2955 RMK A01 T00861005  RH  053%=      5-min Rain = 0
KFLS 110815Z 25021G28KT 09/M01 A2956 RMK A01 T00851005  RH  054%=      5-min Rain = 0
KFLS 110820Z 25021G29KT 09/M01 A2957 RMK A01 T00851005  RH  054%=      5-min Rain = 0
KFLS 110825Z 26018G27KT 08/M01 A2957 RMK A01 T00831006  RH  054%=      5-min Rain = 0
KFLS 110830Z 27020G27KT 08/M01 A2957 RMK A01 T00841006  RH  054%=      5-min Rain = 0
KFLS 110835Z 26020G25KT 08/M01 A2958 RMK A01 T00841007  RH  053%=      5-min Rain = 0
KFLS 110840Z 27017G23KT 08/M01 A2958 RMK A01 T00821008  RH  054%=      5-min Rain = 0
KFLS 110845Z 27015G21KT 08/M01 A2959 RMK A01 T00821009  RH  053%=      5-min Rain = 0
KFLS 110850Z 27016G21KT 08/M01 A296 RMK A01 T00821009  RH  053%=      5-min Rain = 0
KFLS 110855Z 27016KT 08/M01 A296 RMK A01 T00821010  RH  053%=      5-min Rain = 0
KFLS 110900Z 27014G19KT 08/M01 A2961 RMK A01 T00811010  RH  053%=      5-min Rain = 0
KFLS 110905Z 28014G20KT 08/M01 A2961 RMK A01 T00791010  RH  054%=      5-min Rain = 0
KFLS 110910Z 30013G18KT 09/M01 A2961 RMK A01 T00871010  RH  051%=      5-min Rain = 0
KFLS 110915Z 29011G17KT 09/M01 A2961 RMK A01 T00871009  RH  051%=      5-min Rain = 0
KFLS 110920Z 30015G21KT 09/M01 A2961 RMK A01 T00941006  RH  051%=      5-min Rain = 0
KFLS 110925Z 31011G19KT 10/M00 A2961 RMK A01 T00991003  RH  050%=      5-min Rain = 0
KFLS 110930Z 31011G17KT 10/M00 A2962 RMK A01 T00991003  RH  050%=      5-min Rain = 0
KFLS 110935Z 33014G21KT 10/00 A2962 RMK A01 T01000002  RH  051%=      5-min Rain = 0
KFLS 110940Z 33016G21KT 10/01 A2962 RMK A01 T01020009  RH  053%=      5-min Rain = 0
KFLS 110945Z 32019G29KT 10/02 A2963 RMK A01 T01030018  RH  056%=      5-min Rain = 0
KFLS 110950Z 32021G32KT 10/02 A2963 RMK A01 T01030023  RH  058%=      5-min Rain = 0
KFLS 110955Z 32023G32KT 10/02 A2963 RMK A01 T00970022  RH  060%=      5-min Rain = 0
KFLS 111000Z 32022G28KT 09/02 A2964 RMK A01 T00940022  RH  062%=      5-min Rain = 0
KFLS 111005Z 33021G27KT 09/02 A2965 RMK A01 T00920022  RH  062%=      5-min Rain = 0
KFLS 111010Z 34017G23KT 09/02 A2965 RMK A01 T00900022  RH  063%=      5-min Rain = 0
KFLS 111015Z 33019G25KT 09/02 A2965 RMK A01 T00880021  RH  064%=      5-min Rain = 0
KFLS 111020Z 34028G35KT 09/01 A2965 RMK A01 T00850014  RH  062%=      5-min Rain = 0
KFLS 111025Z 34024G34KT 08/01 A2965 RMK A01 T00800012  RH  063%=      5-min Rain = 0
KFLS 111030Z 34026G35KT 08/01 A2965 RMK A01 T00760011  RH  064%=      5-min Rain = 0
KFLS 111035Z 34025G36KT 07/01 A2966 RMK A01 T00730010  RH  065%=      5-min Rain = 0
KFLS 111040Z 34024G32KT 07/01 A2967 RMK A01 T00700010  RH  066%=      5-min Rain = 0
KFLS 111045Z 34023G32KT 07/01 A2967 RMK A01 T00680010  RH  067%=      5-min Rain = 0
KFLS 111050Z 34024G34KT 07/01 A2967 RMK A01 T00650008  RH  068%=      5-min Rain = 0
KFLS 111055Z 34024G31KT 06/00 A2967 RMK A01 T00600004  RH  068%=      5-min Rain = 0
KFLS 111100Z 35023G32KT 06/00 A2968 RMK A01 T00560001  RH  068%=      5-min Rain = 0
KFLS 111105Z 35020G28KT 05/M00 A2969 RMK A01 T00521001  RH  069%=      5-min Rain = 0
KFLS 111110Z 35019G25KT 05/M00 A297 RMK A01 T00471004  RH  070%=      5-min Rain = 0
KFLS 111115Z 35019G25KT 04/M01 A297 RMK A01 T00431007  RH  071%=      5-min Rain = 0
KFLS 111120Z 34023G35KT 04/M01 A2971 RMK A01 T00391009  RH  072%=      5-min Rain = 0
KFLS 111125Z 34025G35KT 03/M01 A2972 RMK A01 T00341013  RH  072%=      5-min Rain = 0
KFLS 111130Z 34022G31KT 03/M01 A2972 RMK A01 T00321014  RH  072%=      5-min Rain = 0
KFLS 111135Z 34021G28KT 03/M02 A2973 RMK A01 T00321015  RH  072%=      5-min Rain = 0
KFLS 111140Z 34021G31KT 03/M02 A2974 RMK A01 T00321015  RH  072%=      5-min Rain = 0
KFLS 111145Z 34023G32KT 03/M02 A2974 RMK A01 T00321016  RH  071%=      5-min Rain = 0
KFLS 111150Z 34025G33KT 03/M02 A2975 RMK A01 T00321017  RH  071%=      5-min Rain = 0
KFLS 111155Z 34024G35KT 03/M02 A2976 RMK A01 T00301018  RH  071%=      5-min Rain = 0
KFLS 111200Z 34025G36KT 03/M02 A2976 RMK A01 T00271019  RH  072%=      5-min Rain = 0
KFLS 111205Z 34026G39KT 03/M02 A2977 RMK A01 T00271019  RH  073%=      5-min Rain = 0
KFLS 111210Z 34023G30KT 03/M02 A2977 RMK A01 T00261019  RH  073%=      5-min Rain = 0
KFLS 111215Z 34027G36KT 02/M03 A2978 RMK A01 T00221025  RH  072%=      5-min Rain = 0
KFLS 111220Z 34028G38KT 02/M03 A2978 RMK A01 T00181031  RH  071%=      5-min Rain = 0
KFLS 111225Z 35023G30KT 02/M03 A2979 RMK A01 T00171032  RH  071%=      5-min Rain = 0
KFLS 111230Z 34022G28KT 02/M03 A2979 RMK A01 T00171032  RH  071%=      5-min Rain = 0
KFLS 111235Z 34020G28KT 02/M03 A298 RMK A01 T00171032  RH  070%=      5-min Rain = 0
KFLS 111240Z 34020G31KT 02/M03 A298 RMK A01 T00171033  RH  070%=      5-min Rain = 0
KFLS 111245Z 33021G30KT 02/M04 A2981 RMK A01 T00161038  RH  068%=      5-min Rain = 0
KFLS 111250Z 34025G38KT 01/M04 A2981 RMK A01 T00121044  RH  067%=      5-min Rain = 0
KFLS 111255Z 34025G34KT 01/M05 A2982 RMK A01 T00091048  RH  066%=      5-min Rain = 0
KFLS 111300Z 34024G33KT 01/M05 A2983 RMK A01 T00081049  RH  067%=      5-min Rain = 0
KFLS 111305Z 35025G38KT 01/M05 A2983 RMK A01 T00071050  RH  067%=      5-min Rain = 0
KFLS 111310Z 35021G29KT 01/M05 A2984 RMK A01 T00051050  RH  067%=      5-min Rain = 0
KFLS 111315Z 34023G35KT 01/M05 A2984 RMK A01 T00051050  RH  067%=      5-min Rain = 0
KFLS 111320Z 34026G35KT 00/M05 A2984 RMK A01 T00041051  RH  067%=      5-min Rain = 0
KFLS 111325Z 34029G38KT 00/06 A2985 RMK A01 T00000-55  RH  067%=      5-min Rain = 0
KFLS 111330Z 34026G35KT M00/M06 A2986 RMK A01 T10041058  RH  068%=      5-min Rain = 0
KFLS 111335Z 34025G35KT M00/M06 A2986 RMK A01 T10041058  RH  068%=      5-min Rain = 0
KFLS 111340Z 34025G31KT M00/M06 A2986 RMK A01 T10041057  RH  068%=      5-min Rain = 0
KFLS 111345Z 35023G31KT M01/M06 A2986 RMK A01 T10051057  RH  068%=      5-min Rain = 0
KFLS 111350Z 35020G25KT M01/M06 A2987 RMK A01 T10051057  RH  069%=      5-min Rain = 0
KFLS 111355Z 34023G32KT M01/M06 A2987 RMK A01 T10051055  RH  070%=      5-min Rain = 0
KFLS 111400Z 34023G31KT M01/M06 A2987 RMK A01 T10051055  RH  070%=      5-min Rain = 0
KFLS 111405Z 34022G29KT M01/M06 A2988 RMK A01 T10061055  RH  070%=      5-min Rain = 0
KFLS 111410Z 34024G37KT M01/M06 A2989 RMK A01 T10071057  RH  070%=      5-min Rain = 0
KFLS 111415Z 34023G33KT M01/M06 A2989 RMK A01 T10101062  RH  068%=      5-min Rain = 0
KFLS 111420Z 35025G34KT M01/M06 A299 RMK A01 T10111064  RH  068%=      5-min Rain = 0
KFLS 111425Z 35024G31KT M01/M07 A2991 RMK A01 T10101066  RH  067%=      5-min Rain = 0
KFLS 111430Z 35020G25KT M01/M07 A2991 RMK A01 T10111067  RH  067%=      5-min Rain = 0
KFLS 111435Z 34020G28KT M01/M07 A2992 RMK A01 T10101067  RH  066%=      5-min Rain = 0
KFLS 111440Z 34020G30KT M01/M07 A2992 RMK A01 T10091068  RH  065%=      5-min Rain = 0
KFLS 111445Z 34021G28KT M01/M07 A2992 RMK A01 T10061068  RH  064%=      5-min Rain = 0
KFLS 111450Z 34020G26KT M00/M07 A2993 RMK A01 T10011068  RH  061%=      5-min Rain = 0
KFLS 111455Z 34023G30KT 00/07 A2993 RMK A01 T00-00-70  RH  060%=      5-min Rain = 0
KFLS 111500Z 34023G31KT M00/M07 A2994 RMK A01 T10011071  RH  060%=      5-min Rain = 0
KFLS 111505Z 34023G34KT M00/M07 A2994 RMK A01 T10011072  RH  059%=      5-min Rain = 0
KFLS 111510Z 34024G32KT M00/M08 A2994 RMK A01 T10031076  RH  058%=      5-min Rain = 0
KFLS 111515Z 34024G32KT M01/M08 A2995 RMK A01 T10051078  RH  058%=      5-min Rain = 0
KFLS 111520Z 34022G32KT M01/M08 A2996 RMK A01 T10051078  RH  059%=      5-min Rain = 0
KFLS 111525Z 34022G32KT M00/M08 A2997 RMK A01 T10031078  RH  058%=      5-min Rain = 0
KFLS 111530Z 34025G33KT M00/M08 A2998 RMK A01 T10021080  RH  056%=      5-min Rain = 0
KFLS 111535Z 34025G34KT 00/M08 A2998 RMK A01 T00011080  RH  055%=      5-min Rain = 0
KFLS 111540Z 35025G34KT 01/M08 A2999 RMK A01 T00091078  RH  053%=      5-min Rain = 0
KFLS 111545Z 34024G36KT 01/M08 A2999 RMK A01 T00141079  RH  050%=      5-min Rain = 0
KFLS 111550Z 35026G36KT 01/M08 A30 RMK A01 T00101082  RH  051%=      5-min Rain = 0
KFLS 111555Z 34025G32KT 01/M08 A30 RMK A01 T00101083  RH  051%=      5-min Rain = 0
KFLS 111600Z 35022G31KT 01/M08 A3001 RMK A01 T00091082  RH  051%=      5-min Rain = 0
KFLS 111605Z 34023G29KT 01/M08 A3002 RMK A01 T00101082  RH  051%=      5-min Rain = 0
KFLS 111610Z 34024G33KT 01/M08 A3002 RMK A01 T00111083  RH  050%=      5-min Rain = 0
KFLS 111615Z 34026G36KT 01/M08 A3003 RMK A01 T00121084  RH  049%=      5-min Rain = 0
KFLS 111620Z 34029G37KT 02/M09 A3003 RMK A01 T00151086  RH  048%=      5-min Rain = 0
KFLS 111625Z 34028G36KT 02/M09 A3004 RMK A01 T00191085  RH  046%=      5-min Rain = 0
KFLS 111630Z 35028G38KT 02/M09 A3004 RMK A01 T00171087  RH  046%=      5-min Rain = 0
KFLS 111635Z 35023G30KT 02/M09 A3004 RMK A01 T00171087  RH  047%=      5-min Rain = 0
KFLS 111640Z 35024G33KT 01/M09 A3004 RMK A01 T00131089  RH  047%=      5-min Rain = 0
KFLS 111645Z 34025G33KT 01/M09 A3005 RMK A01 T00141088  RH  047%=      5-min Rain = 0
KFLS 111650Z 34027G34KT 02/M09 A3005 RMK A01 T00171089  RH  046%=      5-min Rain = 0
KFLS 111655Z 35026G34KT 02/M09 A3006 RMK A01 T00201089  RH  045%=      5-min Rain = 0
KFLS 111700Z 35024G31KT 02/M09 A3007 RMK A01 T00241089  RH  044%=      5-min Rain = 0
KFLS 111705Z 34024G31KT 03/M09 A3007 RMK A01 T00291089  RH  042%=      5-min Rain = 0
KFLS 111710Z 35024G31KT 03/M09 A3007 RMK A01 T00311089  RH  041%=      5-min Rain = 0
KFLS 111715Z 35023G30KT 04/M09 A3007 RMK A01 T00361090  RH  040%=      5-min Rain = 0
KFLS 111720Z 35022G33KT 04/M09 A3008 RMK A01 T00401089  RH  039%=      5-min Rain = 0
KFLS 111725Z 35024G30KT 04/M09 A3008 RMK A01 T00381091  RH  039%=      5-min Rain = 0
KFLS 111730Z 35022G31KT 04/M09 A3008 RMK A01 T00411090  RH  038%=      5-min Rain = 0
KFLS 111735Z 35024G35KT 04/M09 A3009 RMK A01 T00391092  RH  038%=      5-min Rain = 0
KFLS 111740Z 34023G29KT 04/M09 A3009 RMK A01 T00421091  RH  038%=      5-min Rain = 0
KFLS 111745Z 35021G28KT 04/M09 A3009 RMK A01 T00431090  RH  038%=      5-min Rain = 0
KFLS 111750Z 34024G32KT 04/M09 A3009 RMK A01 T00431092  RH  037%=      5-min Rain = 0
KFLS 111755Z 34023G33KT 05/M10 A3009 RMK A01 T00451095  RH  036%=      5-min Rain = 0
KFLS 111800Z 34024G34KT 05/M10 A3009 RMK A01 T00461097  RH  035%=      5-min Rain = 0
KFLS 111805Z 35024G33KT 05/M10 A3009 RMK A01 T00461100  RH  034%=      5-min Rain = 0
KFLS 111810Z 35021G32KT 05/M10 A301 RMK A01 T00481101  RH  034%=      5-min Rain = 0
KFLS 111815Z 35025G31KT 05/M10 A301 RMK A01 T00471102  RH  034%=      5-min Rain = 0
KFLS 111820Z 35024G33KT 05/M10 A301 RMK A01 T00471103  RH  033%=      5-min Rain = 0
KFLS 111825Z 34025G36KT 05/M10 A301 RMK A01 T00471104  RH  033%=      5-min Rain = 0
KFLS 111830Z 35023G32KT 05/M10 A301 RMK A01 T00451103  RH  034%=      5-min Rain = 0
KFLS 111835Z 35023G29KT 05/M10 A301 RMK A01 T00461102  RH  034%=      5-min Rain = 0
KFLS 111840Z 35024G37KT 05/M10 A3011 RMK A01 T00511100  RH  033%=      5-min Rain = 0
KFLS 111845Z 35024G34KT 05/M10 A3011 RMK A01 T00491102  RH  033%=      5-min Rain = 0
KFLS 111850Z 35024G32KT 05/M10 A3011 RMK A01 T00501102  RH  033%=      5-min Rain = 0
KFLS 111855Z 35025G31KT 05/M10 A3011 RMK A01 T00511101  RH  033%=      5-min Rain = 0
KFLS 111900Z 35023G31KT 06/M10 A3011 RMK A01 T00561100  RH  032%=      5-min Rain = 0
KFLS 111905Z 35021G28KT 06/M10 A3011 RMK A01 T00581100  RH  032%=      5-min Rain = 0
KFLS 111910Z 35023G33KT 06/M10 A3011 RMK A01 T00601101  RH  031%=      5-min Rain = 0
KFLS 111915Z 34020G30KT 07/M10 A3011 RMK A01 T00671099  RH  030%=      5-min Rain = 0
KFLS 111920Z 35024G32KT 06/M10 A3012 RMK A01 T00631104  RH  030%=      5-min Rain = 0
KFLS 111925Z 35023G29KT 06/M10 A3012 RMK A01 T00611102  RH  030%=      5-min Rain = 0
KFLS 111930Z 35021G29KT 06/M10 A3012 RMK A01 T00641100  RH  030%=      5-min Rain = 0
KFLS 111935Z 35021G28KT 07/M10 A3012 RMK A01 T00671101  RH  029%=      5-min Rain = 0
KFLS 111940Z 35021G27KT 07/M10 A3012 RMK A01 T00671104  RH  029%=      5-min Rain = 0
KFLS 111945Z 36022G29KT 06/M10 A3012 RMK A01 T00631102  RH  030%=      5-min Rain = 0
KFLS 111950Z 35020G28KT 07/M10 A3012 RMK A01 T00671103  RH  029%=      5-min Rain = 0
KFLS 111955Z 35020G27KT 07/M10 A3013 RMK A01 T00701103  RH  028%=      5-min Rain = 0
KFLS 112000Z 35024G34KT 07/M11 A3012 RMK A01 T00671107  RH  028%=      5-min Rain = 0
KFLS 112005Z 36023G32KT 07/M11 A3012 RMK A01 T00681108  RH  028%=      5-min Rain = 0
KFLS 112010Z 36021G31KT 07/M11 A3012 RMK A01 T00691105  RH  028%=      5-min Rain = 0
KFLS 112015Z 00023G32KT 07/M11 A3012 RMK A01 T00691105  RH  028%=      5-min Rain = 0
KFLS 112020Z 36020G28KT 07/M10 A3013 RMK A01 T00701104  RH  028%=      5-min Rain = 0
KFLS 112025Z 35019G28KT 07/M11 A3013 RMK A01 T00731105  RH  027%=      5-min Rain = 0
KFLS 112030Z 34019G28KT 07/M11 A3013 RMK A01 T00731106  RH  027%=      5-min Rain = 0
KFLS 112035Z 35019G29KT 07/M11 A3013 RMK A01 T00731106  RH  027%=      5-min Rain = 0
KFLS 112040Z 35019G24KT 07/M11 A3014 RMK A01 T00731105  RH  027%=      5-min Rain = 0
KFLS 112045Z 35019G24KT 07/M11 A3014 RMK A01 T00721105  RH  027%=      5-min Rain = 0
KFLS 112050Z 35017G23KT 07/M11 A3013 RMK A01 T00741105  RH  027%=      5-min Rain = 0
KFLS 112055Z 34017G22KT 08/M11 A3014 RMK A01 T00771105  RH  026%=      5-min Rain = 0
KFLS 112100Z 34020G29KT 08/M11 A3014 RMK A01 T00761108  RH  026%=      5-min Rain = 0
KFLS 112105Z 36020G26KT 08/M11 A3014 RMK A01 T00781109  RH  026%=      5-min Rain = 0
KFLS 112110Z 00021G28KT 08/M11 A3014 RMK A01 T00771109  RH  026%=      5-min Rain = 0
KFLS 112115Z 36020G26KT 08/M11 A3014 RMK A01 T00761108  RH  026%=      5-min Rain = 0
KFLS 112120Z 35020G27KT 08/M11 A3015 RMK A01 T00751108  RH  026%=      5-min Rain = 0
KFLS 112125Z 35018G25KT 07/M11 A3015 RMK A01 T00741107  RH  027%=      5-min Rain = 0
KFLS 112130Z 34017G25KT 08/M11 A3015 RMK A01 T00751106  RH  027%=      5-min Rain = 0
KFLS 112135Z 35016G25KT 08/M10 A3016 RMK A01 T00751104  RH  027%=      5-min Rain = 0
KFLS 112140Z 36016G22KT 08/M10 A3016 RMK A01 T00751102  RH  027%=      5-min Rain = 0
KFLS 112145Z 36016G21KT 08/M10 A3016 RMK A01 T00771101  RH  027%=      5-min Rain = 0
KFLS 112150Z 35017G23KT 08/M10 A3016 RMK A01 T00781103  RH  027%=      5-min Rain = 0
KFLS 112155Z 35016G24KT 08/M10 A3016 RMK A01 T00761103  RH  027%=      5-min Rain = 0
KFLS 112200Z 35014G21KT 08/M10 A3016 RMK A01 T00781103  RH  027%=      5-min Rain = 0
KFLS 112205Z 36017G25KT 08/M11 A3016 RMK A01 T00761106  RH  027%=      5-min Rain = 0
KFLS 112210Z 35017G23KT 07/M11 A3016 RMK A01 T00741106  RH  027%=      5-min Rain = 0
KFLS 112215Z 36018G25KT 07/M11 A3017 RMK A01 T00731105  RH  027%=      5-min Rain = 0
KFLS 112220Z 35019G24KT 07/M11 A3017 RMK A01 T00711107  RH  027%=      5-min Rain = 0
KFLS 112225Z 35016G22KT 07/M11 A3017 RMK A01 T00701105  RH  028%=      5-min Rain = 0
KFLS 112230Z 35014G25KT 07/M10 A3017 RMK A01 T00721103  RH  028%=      5-min Rain = 0
KFLS 112235Z 35018G24KT 07/M10 A3017 RMK A01 T00691104  RH  028%=      5-min Rain = 0
KFLS 112240Z 35017G23KT 07/M10 A3017 RMK A01 T00681103  RH  029%=      5-min Rain = 0
KFLS 112245Z 35015G22KT 07/M10 A3017 RMK A01 T00691104  RH  028%=      5-min Rain = 0
KFLS 112250Z 35015G22KT 07/M11 A3018 RMK A01 T00691105  RH  028%=      5-min Rain = 0
KFLS 112255Z 36016G23KT 07/M10 A3018 RMK A01 T00681104  RH  029%=      5-min Rain = 0
KFLS 112300Z 35014G23KT 07/M11 A3018 RMK A01 T00661105  RH  029%=      5-min Rain = 0
KFLS 112305Z 36015G21KT 07/M11 A3018 RMK A01 T00651105  RH  029%=      5-min Rain = 0
KFLS 112310Z 35014G19KT 06/M11 A3019 RMK A01 T00641105  RH  029%=      5-min Rain = 0
KFLS 112315Z 35014G19KT 06/M11 A3019 RMK A01 T00631106  RH  029%=      5-min Rain = 0
KFLS 112320Z 35012G18KT 06/M11 A3019 RMK A01 T00611105  RH  029%=      5-min Rain = 0
KFLS 112325Z 35013G19KT 06/M11 A302 RMK A01 T00601106  RH  030%=      5-min Rain = 0
KFLS 112330Z 35014G20KT 06/M11 A302 RMK A01 T00591106  RH  030%=      5-min Rain = 0
KFLS 112335Z 34014KT 06/M11 A302 RMK A01 T00571107  RH  030%=      5-min Rain = 0
KFLS 112340Z 34012G20KT 06/M11 A3021 RMK A01 T00551107  RH  030%=      5-min Rain = 0
KFLS 112345Z 35013G19KT 05/M11 A3021 RMK A01 T00541108  RH  030%=      5-min Rain = 0
KFLS 112350Z 34011G16KT 05/M11 A3021 RMK A01 T00501109  RH  031%=      5-min Rain = 0
KFLS 112355Z 35011KT 05/M11 A3021 RMK A01 T00481109  RH  032%=      5-min Rain = 0
KFLS 120000Z 35010KT 05/M11 A3021 RMK A01 T00461108  RH  032%=      5-min Rain = 0
KFLS 120005Z 35008KT 04/M11 A3022 RMK A01 T00421108  RH  033%=      5-min Rain = 0
KFLS 120010Z 36008KT 04/M11 A3022 RMK A01 T00401107  RH  034%=      5-min Rain = 0
KFLS 120015Z 00007KT 04/M11 A3022 RMK A01 T00361107  RH  035%=      5-min Rain = 0
KFLS 120020Z 35005KT 03/M11 A3022 RMK A01 T00311107  RH  036%=      5-min Rain = 0
KFLS 120025Z 34004KT 03/M11 A3023 RMK A01 T00271107  RH  037%=      5-min Rain = 0
KFLS 120030Z 34004KT 02/M11 A3023 RMK A01 T00221110  RH  038%=      5-min Rain = 0
KFLS 120035Z 34005KT 02/M11 A3023 RMK A01 T00161112  RH  039%=      5-min Rain = 0
KFLS 120040Z 34006KT 01/M11 A3023 RMK A01 T00121112  RH  040%=      5-min Rain = 0
KFLS 120045Z 34008KT 01/M11 A3023 RMK A01 T00131110  RH  040%=      5-min Rain = 0
KFLS 120050Z 34008KT 02/M11 A3023 RMK A01 T00151110  RH  040%=      5-min Rain = 0
KFLS 120055Z 34008KT 01/M11 A3023 RMK A01 T00111111  RH  040%=      5-min Rain = 0
KFLS 120100Z 34007KT 01/M11 A3024 RMK A01 T00051113  RH  042%=      5-min Rain = 0
KFLS 120105Z 33007KT 00/11 A3024 RMK A01 T00-00-113  RH  043%=      5-min Rain = 0
KFLS 120110Z 33007KT M00/M11 A3024 RMK A01 T10021112  RH  044%=      5-min Rain = 0
KFLS 120115Z 34007KT M00/M11 A3024 RMK A01 T10031110  RH  045%=      5-min Rain = 0
KFLS 120120Z 34008KT 00/M11 A3024 RMK A01 T00031108  RH  043%=      5-min Rain = 0
KFLS 120125Z 34008KT 01/M11 A3024 RMK A01 T00101108  RH  042%=      5-min Rain = 0
KFLS 120130Z 34007KT 00/M11 A3024 RMK A01 T00031112  RH  042%=      5-min Rain = 0
KFLS 120135Z 33008KT M01/M11 A3024 RMK A01 T10071113  RH  045%=      5-min Rain = 0
KFLS 120140Z 33008KT M01/M11 A3025 RMK A01 T10101112  RH  047%=      5-min Rain = 0
KFLS 120145Z 33007KT M02/M11 A3025 RMK A01 T10151112  RH  048%=      5-min Rain = 0
KFLS 120150Z 33008KT M01/M11 A3025 RMK A01 T10141111  RH  048%=      5-min Rain = 0
KFLS 120155Z 34007KT M01/M11 A3025 RMK A01 T10111110  RH  047%=      5-min Rain = 0
KFLS 120200Z 33007KT M01/M11 A3026 RMK A01 T10111110  RH  047%=      5-min Rain = 0
KFLS 120205Z 32005KT M03/M12 A3026 RMK A01 T10261119  RH  050%=      5-min Rain = 0
KFLS 120210Z 31004KT M04/M12 A3026 RMK A01 T10401120  RH  054%=      5-min Rain = 0
KFLS 120215Z 33005KT M03/M12 A3026 RMK A01 T10321121  RH  051%=      5-min Rain = 0
KFLS 120220Z 36007KT M02/M12 A3025 RMK A01 T10241116  RH  050%=      5-min Rain = 0
KFLS 120225Z 01008KT M02/M11 A3025 RMK A01 T10181113  RH  049%=      5-min Rain = 0
KFLS 120230Z 36006KT M02/M11 A3025 RMK A01 T10151111  RH  048%=      5-min Rain = 0
KFLS 120235Z 00006KT M01/M11 A3025 RMK A01 T10091110  RH  047%=      5-min Rain = 0
KFLS 120240Z 36006KT M01/M11 A3026 RMK A01 T10101110  RH  047%=      5-min Rain = 0
KFLS 120245Z 35005KT M01/M11 A3026 RMK A01 T10141112  RH  048%=      5-min Rain = 0
KFLS 120250Z 01006KT M02/M11 A3025 RMK A01 T10181113  RH  049%=      5-min Rain = 0
KFLS 120255Z 35004KT M02/M12 A3026 RMK A01 T10201116  RH  049%=      5-min Rain = 0
KFLS 120300Z 33003KT M04/M12 A3026 RMK A01 T10411123  RH  054%=      5-min Rain = 0
KFLS 120305Z 31003KT M05/M12 A3026 RMK A01 T10471123  RH  056%=      5-min Rain = 0
KFLS 120310Z 30003KT M05/M13 A3026 RMK A01 T10501125  RH  057%=      5-min Rain = 0
KFLS 120315Z 31004KT M05/M12 A3026 RMK A01 T10461121  RH  057%=      5-min Rain = 0
KFLS 120320Z 32004KT M05/M13 A3026 RMK A01 T10521125  RH  057%=      5-min Rain = 0
KFLS 120325Z 35004KT M05/M12 A3026 RMK A01 T10461120  RH  057%=      5-min Rain = 0
KFLS 120330Z 33004KT M04/M12 A3026 RMK A01 T10441123  RH  055%=      5-min Rain = 0
KFLS 120335Z 28004KT M06/M13 A3026 RMK A01 T10591129  RH  058%=      5-min Rain = 0
KFLS 120340Z 31004KT M06/M12 A3026 RMK A01 T10591124  RH  061%=      5-min Rain = 0
KFLS 120345Z 33004KT M06/M13 A3027 RMK A01 T10601126  RH  061%=      5-min Rain = 0
KFLS 120350Z 36005KT M05/M12 A3027 RMK A01 T10511121  RH  059%=      5-min Rain = 0
KFLS 120355Z 34004KT M05/M12 A3027 RMK A01 T10461124  RH  056%=      5-min Rain = 0
KFLS 120400Z 33003KT M06/M13 A3026 RMK A01 T10551132  RH  055%=      5-min Rain = 0
KFLS 120405Z 36004KT M06/M13 A3026 RMK A01 T10591131  RH  058%=      5-min Rain = 0
KFLS 120410Z 36004KT M05/M13 A3026 RMK A01 T10541127  RH  057%=      5-min Rain = 0
KFLS 120415Z 33003KT M05/M13 A3027 RMK A01 T10461128  RH  054%=      5-min Rain = 0
KFLS 120420Z 31003KT M05/M13 A3027 RMK A01 T10541133  RH  055%=      5-min Rain = 0
KFLS 120425Z 33004KT M07/M14 A3027 RMK A01 T10681136  RH  059%=      5-min Rain = 0
KFLS 120430Z 32004KT M07/M13 A3027 RMK A01 T10681134  RH  060%=      5-min Rain = 0
KFLS 120435Z 31004KT M08/M14 A3027 RMK A01 T10751137  RH  062%=      5-min Rain = 0
KFLS 120440Z 31004KT M09/M14 A3027 RMK A01 T10861141  RH  065%=      5-min Rain = 0
KFLS 120445Z 32003KT M09/M14 A3027 RMK A01 T10861139  RH  067%=      5-min Rain = 0
KFLS 120450Z 33002KT M08/M13 A3027 RMK A01 T10791134  RH  066%=      5-min Rain = 0
KFLS 120455Z 31003KT M07/M13 A3028 RMK A01 T10721130  RH  064%=      5-min Rain = 0
KFLS 120500Z 34003KT M07/M13 A3027 RMK A01 T10671129  RH  062%=      5-min Rain = 0
KFLS 120505Z 35004KT M06/M13 A3027 RMK A01 T10611127  RH  060%=      5-min Rain = 0
KFLS 120510Z 01005KT M05/M12 A3026 RMK A01 T10541123  RH  059%=      5-min Rain = 0
KFLS 120515Z 01005KT M05/M12 A3026 RMK A01 T10461120  RH  057%=      5-min Rain = 0
KFLS 120520Z 02005KT M04/M12 A3026 RMK A01 T10411116  RH  056%=      5-min Rain = 0
KFLS 120525Z 01004KT M04/M12 A3026 RMK A01 T10411115  RH  057%=      5-min Rain = 0
KFLS 120530Z 01003KT M04/M12 A3026 RMK A01 T10411116  RH  057%=      5-min Rain = 0
KFLS 120535Z 36004KT M05/M12 A3026 RMK A01 T10531124  RH  058%=      5-min Rain = 0
KFLS 120540Z 36004KT M07/M13 A3026 RMK A01 T10701132  RH  062%=      5-min Rain = 0
KFLS 120545Z 34004KT M08/M14 A3026 RMK A01 T10811138  RH  065%=      5-min Rain = 0
KFLS 120550Z 33003KT M09/M14 A3026 RMK A01 T10871139  RH  067%=      5-min Rain = 0
KFLS 120555Z 31003KT M09/M14 A3026 RMK A01 T10871136  RH  069%=      5-min Rain = 0

Page generated in 0.0091 seconds.